ESGT/THN METAR and TAF weather

Enter ICAO airport designator
Station Type Date Time Source
ESGT METAR 2019/12/13 16:50 UTC NOAA

ESGT 131650Z 06009KT 9999 SCT023 OVC059 03/01 Q0988


Station Type Date Time Source
ESGT Decoded METAR 2019/12/13 16:50 UTC NOAA

Trollhattan Private , Sweden (ESGT) 58-19N 012-21E
Dec 13, 2019 - 11:50 AM EST / 2019.12.13 1650 UTC
Wind: from the ENE (060 degrees) at 10 MPH (9 KT):0
Visibility: greater than 7 mile(s):0
Sky conditions: overcast
Temperature: 37 F (3 C)
Dew Point: 33 F (1 C)
Relative Humidity: 86%
Pressure (altimeter): 29.18 in. Hg (0988 hPa)
ob: ESGT 131650Z 06009KT 9999 SCT023 OVC059 03/01 Q0988
cycle: 17

Station Type Date Time Source
ESGT TAF 2016/08/12 05:58 UTC NOAA

TAF ESGT 120430Z 1205/1224 18007KT 9999 FEW030

Example: see airport list